sensor_id;sensor_type;location;lat;lon;timestamp;P1;durP1;ratioP1;P2;durP2;ratioP2
36301;SDS011;22334;53.022;18.606;2023-02-28T00:00:05;29.70;;;11.80;;
36301;SDS011;22334;53.022;18.606;2023-02-28T00:02:35;39.60;;;14.60;;
36301;SDS011;22334;53.022;18.606;2023-02-28T00:05:04;40.37;;;15.87;;
36301;SDS011;22334;53.022;18.606;2023-02-28T00:07:31;30.00;;;11.57;;
36301;SDS011;22334;53.022;18.606;2023-02-28T00:09:57;29.17;;;11.67;;
36301;SDS011;22334;53.022;18.606;2023-02-28T00:12:23;32.97;;;13.57;;
36301;SDS011;22334;53.022;18.606;2023-02-28T00:14:48;38.50;;;14.33;;
36301;SDS011;22334;53.022;18.606;2023-02-28T00:17:14;29.60;;;12.97;;
36301;SDS011;22334;53.022;18.606;2023-02-28T00:19:41;26.43;;;11.37;;
36301;SDS011;22334;53.022;18.606;2023-02-28T00:22:06;31.03;;;11.90;;
36301;SDS011;22334;53.022;18.606;2023-02-28T00:24:34;28.23;;;11.40;;
36301;SDS011;22334;53.022;18.606;2023-02-28T00:27:00;30.77;;;12.07;;
36301;SDS011;22334;53.022;18.606;2023-02-28T00:29:25;30.00;;;12.20;;
36301;SDS011;22334;53.022;18.606;2023-02-28T00:31:51;29.83;;;12.13;;
36301;SDS011;22334;53.022;18.606;2023-02-28T00:34:16;34.13;;;12.87;;
36301;SDS011;22334;53.022;18.606;2023-02-28T00:36:42;33.20;;;11.77;;
36301;SDS011;22334;53.022;18.606;2023-02-28T00:39:10;26.90;;;11.27;;
36301;SDS011;22334;53.022;18.606;2023-02-28T00:41:36;28.97;;;12.63;;
36301;SDS011;22334;53.022;18.606;2023-02-28T00:44:01;29.70;;;12.60;;
36301;SDS011;22334;53.022;18.606;2023-02-28T00:46:28;24.43;;;11.90;;
36301;SDS011;22334;53.022;18.606;2023-02-28T00:48:54;29.50;;;12.13;;
36301;SDS011;22334;53.022;18.606;2023-02-28T00:51:19;30.80;;;12.33;;
36301;SDS011;22334;53.022;18.606;2023-02-28T00:53:45;27.50;;;11.43;;
36301;SDS011;22334;53.022;18.606;2023-02-28T00:56:10;37.97;;;14.33;;
36301;SDS011;22334;53.022;18.606;2023-02-28T00:58:36;39.27;;;12.93;;
36301;SDS011;22334;53.022;18.606;2023-02-28T01:01:03;30.13;;;12.90;;
36301;SDS011;22334;53.022;18.606;2023-02-28T01:03:30;30.63;;;12.53;;
36301;SDS011;22334;53.022;18.606;2023-02-28T01:05:56;25.50;;;11.17;;
36301;SDS011;22334;53.022;18.606;2023-02-28T01:08:22;59.03;;;39.27;;
36301;SDS011;22334;53.022;18.606;2023-02-28T01:10:47;35.87;;;17.23;;
36301;SDS011;22334;53.022;18.606;2023-02-28T01:13:16;34.60;;;13.73;;
36301;SDS011;22334;53.022;18.606;2023-02-28T01:16:22;33.03;;;13.57;;
36301;SDS011;22334;53.022;18.606;2023-02-28T01:19:08;32.73;;;12.87;;
36301;SDS011;22334;53.022;18.606;2023-02-28T01:21:33;38.47;;;14.83;;
36301;SDS011;22334;53.022;18.606;2023-02-28T01:24:00;36.53;;;14.67;;
36301;SDS011;22334;53.022;18.606;2023-02-28T01:26:26;33.87;;;14.83;;
36301;SDS011;22334;53.022;18.606;2023-02-28T01:28:52;29.87;;;13.47;;
36301;SDS011;22334;53.022;18.606;2023-02-28T01:31:18;37.17;;;14.23;;
36301;SDS011;22334;53.022;18.606;2023-02-28T01:33:44;37.00;;;15.53;;
36301;SDS011;22334;53.022;18.606;2023-02-28T01:36:14;37.73;;;16.10;;
36301;SDS011;22334;53.022;18.606;2023-02-28T01:38:41;32.97;;;14.50;;
36301;SDS011;22334;53.022;18.606;2023-02-28T01:41:07;36.30;;;15.20;;
36301;SDS011;22334;53.022;18.606;2023-02-28T01:46:09;35.27;;;15.53;;
36301;SDS011;22334;53.022;18.606;2023-02-28T01:51:10;36.63;;;14.37;;
36301;SDS011;22334;53.022;18.606;2023-02-28T01:54:02;30.83;;;13.77;;
36301;SDS011;22334;53.022;18.606;2023-02-28T01:56:32;39.80;;;15.63;;
36301;SDS011;22334;53.022;18.606;2023-02-28T01:59:00;36.10;;;15.75;;
36301;SDS011;22334;53.022;18.606;2023-02-28T02:01:25;38.37;;;15.67;;
36301;SDS011;22334;53.022;18.606;2023-02-28T02:03:53;48.80;;;17.13;;
36301;SDS011;22334;53.022;18.606;2023-02-28T02:06:22;41.00;;;15.70;;
36301;SDS011;22334;53.022;18.606;2023-02-28T02:08:51;42.60;;;16.70;;
36301;SDS011;22334;53.022;18.606;2023-02-28T02:11:17;53.30;;;18.90;;
36301;SDS011;22334;53.022;18.606;2023-02-28T02:27:25;58.30;;;24.00;;
36301;SDS011;22334;53.022;18.606;2023-02-28T02:30:06;57.45;;;23.20;;
36301;SDS011;22334;53.022;18.606;2023-02-28T02:48:59;50.03;;;22.20;;
36301;SDS011;22334;53.022;18.606;2023-02-28T02:51:26;48.20;;;22.37;;
36301;SDS011;22334;53.022;18.606;2023-02-28T02:54:14;53.57;;;22.70;;
36301;SDS011;22334;53.022;18.606;2023-02-28T03:00:34;56.80;;;22.43;;
36301;SDS011;22334;53.022;18.606;2023-02-28T03:03:14;49.33;;;21.97;;
36301;SDS011;22334;53.022;18.606;2023-02-28T03:05:51;49.83;;;20.75;;
36301;SDS011;22334;53.022;18.606;2023-02-28T03:08:41;51.77;;;21.33;;
36301;SDS011;22334;53.022;18.606;2023-02-28T03:11:57;46.47;;;20.00;;
36301;SDS011;22334;53.022;18.606;2023-02-28T03:15:05;49.07;;;21.77;;
36301;SDS011;22334;53.022;18.606;2023-02-28T03:18:06;45.53;;;21.07;;
36301;SDS011;22334;53.022;18.606;2023-02-28T03:24:10;44.87;;;20.57;;
36301;SDS011;22334;53.022;18.606;2023-02-28T03:26:48;46.93;;;20.73;;
36301;SDS011;22334;53.022;18.606;2023-02-28T03:32:03;41.93;;;19.87;;
36301;SDS011;22334;53.022;18.606;2023-02-28T03:35:03;50.30;;;20.37;;
36301;SDS011;22334;53.022;18.606;2023-02-28T03:41:09;45.30;;;18.57;;
36301;SDS011;22334;53.022;18.606;2023-02-28T03:50:57;47.67;;;18.90;;
36301;SDS011;22334;53.022;18.606;2023-02-28T03:54:22;53.97;;;21.07;;
36301;SDS011;22334;53.022;18.606;2023-02-28T04:01:12;46.30;;;20.17;;
36301;SDS011;22334;53.022;18.606;2023-02-28T04:03:49;45.87;;;19.83;;
36301;SDS011;22334;53.022;18.606;2023-02-28T04:06:21;52.53;;;21.40;;
36301;SDS011;22334;53.022;18.606;2023-02-28T04:08:49;54.83;;;24.57;;
36301;SDS011;22334;53.022;18.606;2023-02-28T04:11:39;51.30;;;22.30;;
36301;SDS011;22334;53.022;18.606;2023-02-28T04:14:09;63.30;;;23.67;;
36301;SDS011;22334;53.022;18.606;2023-02-28T04:16:36;65.73;;;25.13;;
36301;SDS011;22334;53.022;18.606;2023-02-28T04:19:04;68.83;;;28.37;;
36301;SDS011;22334;53.022;18.606;2023-02-28T04:21:36;66.70;;;26.43;;
36301;SDS011;22334;53.022;18.606;2023-02-28T04:24:10;83.00;;;28.40;;
36301;SDS011;22334;53.022;18.606;2023-02-28T04:26:40;67.37;;;26.77;;
36301;SDS011;22334;53.022;18.606;2023-02-28T04:29:13;66.43;;;25.40;;
36301;SDS011;22334;53.022;18.606;2023-02-28T04:31:43;65.63;;;26.60;;
36301;SDS011;22334;53.022;18.606;2023-02-28T04:34:09;67.23;;;27.03;;
36301;SDS011;22334;53.022;18.606;2023-02-28T04:36:34;69.50;;;25.53;;
36301;SDS011;22334;53.022;18.606;2023-02-28T04:39:05;59.87;;;26.53;;
36301;SDS011;22334;53.022;18.606;2023-02-28T04:41:33;73.93;;;29.37;;
36301;SDS011;22334;53.022;18.606;2023-02-28T04:43:59;70.87;;;29.40;;
36301;SDS011;22334;53.022;18.606;2023-02-28T04:46:24;78.40;;;30.47;;
36301;SDS011;22334;53.022;18.606;2023-02-28T04:48:50;79.77;;;30.33;;
36301;SDS011;22334;53.022;18.606;2023-02-28T04:51:16;73.50;;;27.83;;
36301;SDS011;22334;53.022;18.606;2023-02-28T04:53:43;73.37;;;28.93;;
36301;SDS011;22334;53.022;18.606;2023-02-28T04:56:11;60.53;;;27.43;;
36301;SDS011;22334;53.022;18.606;2023-02-28T04:58:37;59.43;;;25.67;;
36301;SDS011;22334;53.022;18.606;2023-02-28T05:03:39;56.77;;;23.67;;
36301;SDS011;22334;53.022;18.606;2023-02-28T05:06:08;51.40;;;22.77;;
36301;SDS011;22334;53.022;18.606;2023-02-28T05:08:34;64.00;;;25.43;;
36301;SDS011;22334;53.022;18.606;2023-02-28T05:10:59;64.90;;;26.43;;
36301;SDS011;22334;53.022;18.606;2023-02-28T05:13:26;63.33;;;25.40;;
36301;SDS011;22334;53.022;18.606;2023-02-28T05:15:52;50.80;;;21.77;;
36301;SDS011;22334;53.022;18.606;2023-02-28T05:18:18;54.97;;;22.30;;
36301;SDS011;22334;53.022;18.606;2023-02-28T05:20:44;51.43;;;21.07;;
36301;SDS011;22334;53.022;18.606;2023-02-28T05:23:13;52.53;;;21.90;;
36301;SDS011;22334;53.022;18.606;2023-02-28T05:25:40;49.37;;;21.73;;
36301;SDS011;22334;53.022;18.606;2023-02-28T05:28:06;50.13;;;20.83;;
36301;SDS011;22334;53.022;18.606;2023-02-28T05:30:32;52.23;;;21.90;;
36301;SDS011;22334;53.022;18.606;2023-02-28T05:32:58;49.83;;;19.93;;
36301;SDS011;22334;53.022;18.606;2023-02-28T05:35:24;52.77;;;21.60;;
36301;SDS011;22334;53.022;18.606;2023-02-28T05:37:50;46.23;;;20.47;;
36301;SDS011;22334;53.022;18.606;2023-02-28T05:40:16;51.53;;;21.80;;
36301;SDS011;22334;53.022;18.606;2023-02-28T05:42:42;46.23;;;22.07;;
36301;SDS011;22334;53.022;18.606;2023-02-28T05:45:08;59.77;;;23.77;;
36301;SDS011;22334;53.022;18.606;2023-02-28T05:47:36;67.40;;;25.90;;
36301;SDS011;22334;53.022;18.606;2023-02-28T05:50:01;54.63;;;22.77;;
36301;SDS011;22334;53.022;18.606;2023-02-28T05:52:27;46.67;;;20.60;;
36301;SDS011;22334;53.022;18.606;2023-02-28T05:54:55;45.87;;;21.13;;
36301;SDS011;22334;53.022;18.606;2023-02-28T05:57:20;43.97;;;21.20;;
36301;SDS011;22334;53.022;18.606;2023-02-28T05:59:46;58.53;;;24.20;;
36301;SDS011;22334;53.022;18.606;2023-02-28T06:02:12;48.57;;;22.83;;
36301;SDS011;22334;53.022;18.606;2023-02-28T06:04:38;58.17;;;23.30;;
36301;SDS011;22334;53.022;18.606;2023-02-28T06:07:05;63.27;;;23.67;;
36301;SDS011;22334;53.022;18.606;2023-02-28T06:09:32;58.83;;;26.20;;
36301;SDS011;22334;53.022;18.606;2023-02-28T06:11:58;65.67;;;27.43;;
36301;SDS011;22334;53.022;18.606;2023-02-28T06:14:24;68.53;;;29.40;;
36301;SDS011;22334;53.022;18.606;2023-02-28T06:16:50;64.67;;;28.00;;
36301;SDS011;22334;53.022;18.606;2023-02-28T06:19:15;72.47;;;29.37;;
36301;SDS011;22334;53.022;18.606;2023-02-28T06:21:41;68.40;;;30.07;;
36301;SDS011;22334;53.022;18.606;2023-02-28T06:24:07;65.53;;;28.80;;
36301;SDS011;22334;53.022;18.606;2023-02-28T06:26:32;58.23;;;28.20;;
36301;SDS011;22334;53.022;18.606;2023-02-28T06:28:59;75.50;;;31.00;;
36301;SDS011;22334;53.022;18.606;2023-02-28T06:31:44;79.30;;;31.90;;
36301;SDS011;22334;53.022;18.606;2023-02-28T06:34:32;77.20;;;33.73;;
36301;SDS011;22334;53.022;18.606;2023-02-28T06:36:58;86.17;;;35.50;;
36301;SDS011;22334;53.022;18.606;2023-02-28T06:39:27;96.90;;;37.37;;
36301;SDS011;22334;53.022;18.606;2023-02-28T06:42:08;85.50;;;37.67;;
36301;SDS011;22334;53.022;18.606;2023-02-28T06:45:13;83.07;;;35.47;;
36301;SDS011;22334;53.022;18.606;2023-02-28T06:47:47;81.10;;;32.97;;
36301;SDS011;22334;53.022;18.606;2023-02-28T06:50:17;76.38;;;33.78;;
36301;SDS011;22334;53.022;18.606;2023-02-28T06:52:45;120.50;;;37.10;;
36301;SDS011;22334;53.022;18.606;2023-02-28T06:58:56;70.30;;;33.47;;
36301;SDS011;22334;53.022;18.606;2023-02-28T07:02:15;80.30;;;32.63;;
36301;SDS011;22334;53.022;18.606;2023-02-28T07:06:04;87.47;;;31.77;;
36301;SDS011;22334;53.022;18.606;2023-02-28T07:09:02;143.13;;;58.00;;
36301;SDS011;22334;53.022;18.606;2023-02-28T07:11:30;143.20;;;54.53;;
36301;SDS011;22334;53.022;18.606;2023-02-28T07:13:56;125.23;;;50.07;;
36301;SDS011;22334;53.022;18.606;2023-02-28T07:16:45;107.13;;;41.57;;
36301;SDS011;22334;53.022;18.606;2023-02-28T07:19:15;88.50;;;38.93;;
36301;SDS011;22334;53.022;18.606;2023-02-28T07:21:40;86.73;;;36.00;;
36301;SDS011;22334;53.022;18.606;2023-02-28T07:24:06;87.17;;;35.63;;
36301;SDS011;22334;53.022;18.606;2023-02-28T07:26:31;84.27;;;35.67;;
36301;SDS011;22334;53.022;18.606;2023-02-28T07:28:59;97.87;;;35.97;;
36301;SDS011;22334;53.022;18.606;2023-02-28T07:31:25;80.37;;;33.63;;
36301;SDS011;22334;53.022;18.606;2023-02-28T07:33:50;68.17;;;30.80;;
36301;SDS011;22334;53.022;18.606;2023-02-28T07:36:16;56.67;;;29.50;;
36301;SDS011;22334;53.022;18.606;2023-02-28T07:38:46;61.77;;;30.53;;
36301;SDS011;22334;53.022;18.606;2023-02-28T07:41:13;58.90;;;28.30;;
36301;SDS011;22334;53.022;18.606;2023-02-28T07:46:26;65.23;;;31.50;;
36301;SDS011;22334;53.022;18.606;2023-02-28T07:48:53;59.10;;;28.87;;
36301;SDS011;22334;53.022;18.606;2023-02-28T07:51:20;61.87;;;29.60;;
36301;SDS011;22334;53.022;18.606;2023-02-28T07:53:45;54.08;;;27.90;;
36301;SDS011;22334;53.022;18.606;2023-02-28T07:56:29;57.85;;;29.15;;
36301;SDS011;22334;53.022;18.606;2023-02-28T07:58:56;57.43;;;29.13;;
36301;SDS011;22334;53.022;18.606;2023-02-28T08:14:13;70.30;;;31.37;;
36301;SDS011;22334;53.022;18.606;2023-02-28T08:16:39;87.37;;;36.47;;
36301;SDS011;22334;53.022;18.606;2023-02-28T08:19:04;75.95;;;34.33;;
36301;SDS011;22334;53.022;18.606;2023-02-28T08:21:30;77.82;;;35.17;;
36301;SDS011;22334;53.022;18.606;2023-02-28T08:23:56;65.82;;;31.10;;
36301;SDS011;22334;53.022;18.606;2023-02-28T08:26:22;62.65;;;28.98;;
36301;SDS011;22334;53.022;18.606;2023-02-28T08:28:47;73.60;;;32.88;;
36301;SDS011;22334;53.022;18.606;2023-02-28T08:31:14;64.88;;;28.77;;
36301;SDS011;22334;53.022;18.606;2023-02-28T08:36:36;58.55;;;24.13;;
36301;SDS011;22334;53.022;18.606;2023-02-28T08:39:02;62.47;;;25.77;;
36301;SDS011;22334;53.022;18.606;2023-02-28T08:41:28;49.78;;;22.83;;
36301;SDS011;22334;53.022;18.606;2023-02-28T08:43:53;62.10;;;26.27;;
36301;SDS011;22334;53.022;18.606;2023-02-28T08:46:19;58.08;;;26.80;;
36301;SDS011;22334;53.022;18.606;2023-02-28T08:48:44;66.65;;;29.60;;
36301;SDS011;22334;53.022;18.606;2023-02-28T08:51:14;59.15;;;27.77;;
36301;SDS011;22334;53.022;18.606;2023-02-28T08:53:43;47.25;;;24.02;;
36301;SDS011;22334;53.022;18.606;2023-02-28T08:56:10;52.83;;;24.35;;
36301;SDS011;22334;53.022;18.606;2023-02-28T08:58:38;44.80;;;21.50;;
36301;SDS011;22334;53.022;18.606;2023-02-28T09:01:11;37.80;;;18.15;;
36301;SDS011;22334;53.022;18.606;2023-02-28T09:06:33;38.63;;;18.48;;
36301;SDS011;22334;53.022;18.606;2023-02-28T09:08:59;38.25;;;18.20;;
36301;SDS011;22334;53.022;18.606;2023-02-28T09:11:29;33.88;;;15.27;;
36301;SDS011;22334;53.022;18.606;2023-02-28T09:13:54;30.27;;;15.20;;
36301;SDS011;22334;53.022;18.606;2023-02-28T09:16:23;36.40;;;16.35;;
36301;SDS011;22334;53.022;18.606;2023-02-28T09:18:49;35.70;;;16.40;;
36301;SDS011;22334;53.022;18.606;2023-02-28T09:21:16;38.72;;;16.65;;
36301;SDS011;22334;53.022;18.606;2023-02-28T09:23:44;32.58;;;16.33;;
36301;SDS011;22334;53.022;18.606;2023-02-28T09:26:14;33.40;;;16.05;;
36301;SDS011;22334;53.022;18.606;2023-02-28T09:28:44;41.20;;;17.23;;
36301;SDS011;22334;53.022;18.606;2023-02-28T09:31:14;50.67;;;26.25;;
36301;SDS011;22334;53.022;18.606;2023-02-28T09:33:40;35.40;;;18.05;;
36301;SDS011;22334;53.022;18.606;2023-02-28T09:36:06;33.00;;;14.57;;
36301;SDS011;22334;53.022;18.606;2023-02-28T09:38:32;27.67;;;12.98;;
36301;SDS011;22334;53.022;18.606;2023-02-28T09:40:59;26.48;;;13.35;;
36301;SDS011;22334;53.022;18.606;2023-02-28T09:43:28;28.25;;;13.27;;
36301;SDS011;22334;53.022;18.606;2023-02-28T09:46:02;30.77;;;14.00;;
36301;SDS011;22334;53.022;18.606;2023-02-28T09:48:34;25.92;;;12.25;;
36301;SDS011;22334;53.022;18.606;2023-02-28T09:51:47;23.48;;;11.15;;
36301;SDS011;22334;53.022;18.606;2023-02-28T09:53:58;25.92;;;12.52;;
36301;SDS011;22334;53.022;18.606;2023-02-28T09:56:26;21.92;;;10.70;;
36301;SDS011;22334;53.022;18.606;2023-02-28T09:58:59;21.58;;;10.60;;
36301;SDS011;22334;53.022;18.606;2023-02-28T10:01:39;21.15;;;9.60;;
36301;SDS011;22334;53.022;18.606;2023-02-28T10:09:59;20.92;;;10.45;;
36301;SDS011;22334;53.022;18.606;2023-02-28T10:12:28;19.70;;;7.70;;
36301;SDS011;22334;53.022;18.606;2023-02-28T10:14:54;18.95;;;8.32;;
36301;SDS011;22334;53.022;18.606;2023-02-28T10:17:30;22.02;;;8.60;;
36301;SDS011;22334;53.022;18.606;2023-02-28T10:20:07;26.10;;;8.48;;
36301;SDS011;22334;53.022;18.606;2023-02-28T10:22:42;19.10;;;8.85;;
36301;SDS011;22334;53.022;18.606;2023-02-28T10:25:18;29.10;;;8.27;;
36301;SDS011;22334;53.022;18.606;2023-02-28T10:27:52;25.65;;;8.13;;
36301;SDS011;22334;53.022;18.606;2023-02-28T10:30:19;16.67;;;8.05;;
36301;SDS011;22334;53.022;18.606;2023-02-28T10:32:47;18.48;;;9.02;;
36301;SDS011;22334;53.022;18.606;2023-02-28T10:35:16;20.25;;;7.93;;
36301;SDS011;22334;53.022;18.606;2023-02-28T10:37:50;20.30;;;7.38;;
36301;SDS011;22334;53.022;18.606;2023-02-28T10:45:24;15.60;;;6.35;;
36301;SDS011;22334;53.022;18.606;2023-02-28T10:47:52;17.85;;;6.65;;
36301;SDS011;22334;53.022;18.606;2023-02-28T10:58:53;24.88;;;7.88;;
36301;SDS011;22334;53.022;18.606;2023-02-28T11:04:16;26.00;;;7.60;;
36301;SDS011;22334;53.022;18.606;2023-02-28T11:10:04;18.70;;;7.63;;
36301;SDS011;22334;53.022;18.606;2023-02-28T11:12:34;18.60;;;7.47;;
36301;SDS011;22334;53.022;18.606;2023-02-28T11:15:04;14.93;;;6.75;;
36301;SDS011;22334;53.022;18.606;2023-02-28T11:17:32;17.30;;;6.85;;
36301;SDS011;22334;53.022;18.606;2023-02-28T11:19:59;10.65;;;5.18;;
36301;SDS011;22334;53.022;18.606;2023-02-28T11:22:29;19.67;;;6.55;;
36301;SDS011;22334;53.022;18.606;2023-02-28T11:24:58;17.07;;;5.63;;
36301;SDS011;22334;53.022;18.606;2023-02-28T11:29:59;13.70;;;5.60;;
36301;SDS011;22334;53.022;18.606;2023-02-28T11:32:26;14.85;;;5.72;;
36301;SDS011;22334;53.022;18.606;2023-02-28T11:35:04;30.33;;;7.25;;
36301;SDS011;22334;53.022;18.606;2023-02-28T11:37:40;23.45;;;5.40;;
36301;SDS011;22334;53.022;18.606;2023-02-28T11:40:12;17.70;;;5.95;;
36301;SDS011;22334;53.022;18.606;2023-02-28T11:59:14;25.40;;;7.68;;
36301;SDS011;22334;53.022;18.606;2023-02-28T12:08:44;14.07;;;6.28;;
36301;SDS011;22334;53.022;18.606;2023-02-28T12:25:18;24.02;;;7.50;;
36301;SDS011;22334;53.022;18.606;2023-02-28T12:27:48;36.05;;;7.90;;
36301;SDS011;22334;53.022;18.606;2023-02-28T12:30:28;16.63;;;7.47;;
36301;SDS011;22334;53.022;18.606;2023-02-28T12:33:06;21.40;;;7.32;;
36301;SDS011;22334;53.022;18.606;2023-02-28T12:35:36;14.07;;;6.70;;
36301;SDS011;22334;53.022;18.606;2023-02-28T12:38:13;17.35;;;6.65;;
36301;SDS011;22334;53.022;18.606;2023-02-28T12:40:49;35.35;;;8.20;;
36301;SDS011;22334;53.022;18.606;2023-02-28T12:43:19;22.90;;;7.40;;
36301;SDS011;22334;53.022;18.606;2023-02-28T12:45:47;27.63;;;8.80;;
36301;SDS011;22334;53.022;18.606;2023-02-28T12:48:28;15.27;;;6.93;;
36301;SDS011;22334;53.022;18.606;2023-02-28T12:51:01;18.92;;;6.88;;
36301;SDS011;22334;53.022;18.606;2023-02-28T12:53:31;17.13;;;6.53;;
36301;SDS011;22334;53.022;18.606;2023-02-28T12:56:04;22.00;;;6.80;;
36301;SDS011;22334;53.022;18.606;2023-02-28T12:58:46;13.75;;;6.50;;
36301;SDS011;22334;53.022;18.606;2023-02-28T13:01:34;17.83;;;6.47;;
36301;SDS011;22334;53.022;18.606;2023-02-28T13:06:58;12.55;;;6.57;;
36301;SDS011;22334;53.022;18.606;2023-02-28T13:09:51;12.60;;;6.65;;
36301;SDS011;22334;53.022;18.606;2023-02-28T13:12:18;20.05;;;8.90;;
36301;SDS011;22334;53.022;18.606;2023-02-28T13:15:01;29.73;;;12.02;;
36301;SDS011;22334;53.022;18.606;2023-02-28T13:18:04;14.93;;;6.22;;
36301;SDS011;22334;53.022;18.606;2023-02-28T13:20:37;26.40;;;8.02;;
36301;SDS011;22334;53.022;18.606;2023-02-28T13:23:59;22.48;;;7.35;;
36301;SDS011;22334;53.022;18.606;2023-02-28T13:26:04;12.05;;;5.70;;
36301;SDS011;22334;53.022;18.606;2023-02-28T13:31:27;9.15;;;5.30;;
36301;SDS011;22334;53.022;18.606;2023-02-28T13:39:02;29.88;;;13.68;;
36301;SDS011;22334;53.022;18.606;2023-02-28T13:45:26;23.85;;;10.10;;
36301;SDS011;22334;53.022;18.606;2023-02-28T13:48:18;11.32;;;5.45;;
36301;SDS011;22334;53.022;18.606;2023-02-28T13:51:46;19.92;;;6.63;;
36301;SDS011;22334;53.022;18.606;2023-02-28T14:07:12;11.82;;;6.18;;
36301;SDS011;22334;53.022;18.606;2023-02-28T14:09:49;12.73;;;5.97;;
36301;SDS011;22334;53.022;18.606;2023-02-28T14:12:54;18.08;;;8.70;;
36301;SDS011;22334;53.022;18.606;2023-02-28T14:18:21;13.77;;;5.35;;
36301;SDS011;22334;53.022;18.606;2023-02-28T14:20:52;15.95;;;5.68;;
36301;SDS011;22334;53.022;18.606;2023-02-28T14:38:45;14.15;;;4.55;;
36301;SDS011;22334;53.022;18.606;2023-02-28T14:45:40;17.90;;;6.07;;
36301;SDS011;22334;53.022;18.606;2023-02-28T14:48:02;11.02;;;4.60;;
36301;SDS011;22334;53.022;18.606;2023-02-28T14:50:42;17.17;;;7.82;;
36301;SDS011;22334;53.022;18.606;2023-02-28T15:00:52;22.65;;;8.82;;
36301;SDS011;22334;53.022;18.606;2023-02-28T15:04:18;15.88;;;5.50;;
36301;SDS011;22334;53.022;18.606;2023-02-28T15:13:02;17.00;;;6.35;;
36301;SDS011;22334;53.022;18.606;2023-02-28T15:19:40;11.95;;;4.63;;
36301;SDS011;22334;53.022;18.606;2023-02-28T15:22:14;18.30;;;4.85;;
36301;SDS011;22334;53.022;18.606;2023-02-28T15:25:01;14.40;;;5.57;;
36301;SDS011;22334;53.022;18.606;2023-02-28T15:27:29;16.73;;;6.22;;
36301;SDS011;22334;53.022;18.606;2023-02-28T15:29:58;21.95;;;6.18;;
36301;SDS011;22334;53.022;18.606;2023-02-28T15:36:03;11.98;;;5.05;;
36301;SDS011;22334;53.022;18.606;2023-02-28T15:38:33;19.25;;;5.35;;
36301;SDS011;22334;53.022;18.606;2023-02-28T15:41:01;17.48;;;6.28;;
36301;SDS011;22334;53.022;18.606;2023-02-28T15:43:36;18.35;;;6.45;;
36301;SDS011;22334;53.022;18.606;2023-02-28T15:46:06;38.40;;;13.82;;
36301;SDS011;22334;53.022;18.606;2023-02-28T15:51:17;27.67;;;8.38;;
36301;SDS011;22334;53.022;18.606;2023-02-28T15:53:52;17.50;;;8.10;;
36301;SDS011;22334;53.022;18.606;2023-02-28T15:56:32;23.23;;;8.10;;
36301;SDS011;22334;53.022;18.606;2023-02-28T15:59:16;25.92;;;10.65;;
36301;SDS011;22334;53.022;18.606;2023-02-28T16:01:44;20.55;;;8.60;;
36301;SDS011;22334;53.022;18.606;2023-02-28T16:04:19;22.35;;;8.23;;
36301;SDS011;22334;53.022;18.606;2023-02-28T16:07:00;17.90;;;7.25;;
36301;SDS011;22334;53.022;18.606;2023-02-28T16:09:29;16.40;;;8.63;;
36301;SDS011;22334;53.022;18.606;2023-02-28T16:11:58;27.02;;;11.45;;
36301;SDS011;22334;53.022;18.606;2023-02-28T16:14:30;27.10;;;11.25;;
36301;SDS011;22334;53.022;18.606;2023-02-28T16:17:02;21.50;;;10.93;;
36301;SDS011;22334;53.022;18.606;2023-02-28T16:19:31;24.35;;;10.75;;
36301;SDS011;22334;53.022;18.606;2023-02-28T16:21:59;31.23;;;13.15;;
36301;SDS011;22334;53.022;18.606;2023-02-28T16:24:25;36.08;;;17.42;;
36301;SDS011;22334;53.022;18.606;2023-02-28T16:26:51;45.35;;;19.98;;
36301;SDS011;22334;53.022;18.606;2023-02-28T16:29:20;49.53;;;24.55;;
36301;SDS011;22334;53.022;18.606;2023-02-28T16:32:10;43.22;;;19.85;;
36301;SDS011;22334;53.022;18.606;2023-02-28T16:34:38;33.47;;;17.63;;
36301;SDS011;22334;53.022;18.606;2023-02-28T16:37:09;35.83;;;17.15;;
36301;SDS011;22334;53.022;18.606;2023-02-28T16:40:09;32.70;;;17.23;;
36301;SDS011;22334;53.022;18.606;2023-02-28T16:57:15;31.45;;;13.73;;
36301;SDS011;22334;53.022;18.606;2023-02-28T17:31:03;89.97;;;43.95;;
36301;SDS011;22334;53.022;18.606;2023-02-28T17:33:36;96.90;;;43.92;;
36301;SDS011;22334;53.022;18.606;2023-02-28T17:36:02;71.93;;;31.02;;
36301;SDS011;22334;53.022;18.606;2023-02-28T17:38:28;94.65;;;43.35;;
36301;SDS011;22334;53.022;18.606;2023-02-28T17:40:54;200.57;;;87.45;;
36301;SDS011;22334;53.022;18.606;2023-02-28T18:03:06;73.47;;;29.50;;
36301;SDS011;22334;53.022;18.606;2023-02-28T18:08:58;77.35;;;30.83;;
36301;SDS011;22334;53.022;18.606;2023-02-28T18:11:37;54.78;;;23.00;;
36301;SDS011;22334;53.022;18.606;2023-02-28T18:14:38;46.00;;;22.27;;
36301;SDS011;22334;53.022;18.606;2023-02-28T18:17:13;62.67;;;26.77;;
36301;SDS011;22334;53.022;18.606;2023-02-28T18:19:39;57.92;;;27.05;;
36301;SDS011;22334;53.022;18.606;2023-02-28T18:22:05;52.88;;;25.23;;
36301;SDS011;22334;53.022;18.606;2023-02-28T18:27:21;45.38;;;21.40;;
36301;SDS011;22334;53.022;18.606;2023-02-28T18:30:31;50.50;;;24.13;;
36301;SDS011;22334;53.022;18.606;2023-02-28T18:33:01;45.20;;;22.83;;
36301;SDS011;22334;53.022;18.606;2023-02-28T18:35:29;45.72;;;22.45;;
36301;SDS011;22334;53.022;18.606;2023-02-28T18:38:10;53.28;;;26.90;;
36301;SDS011;22334;53.022;18.606;2023-02-28T18:40:40;47.38;;;21.83;;
36301;SDS011;22334;53.022;18.606;2023-02-28T18:43:07;47.15;;;19.50;;
36301;SDS011;22334;53.022;18.606;2023-02-28T18:45:37;51.97;;;21.45;;
36301;SDS011;22334;53.022;18.606;2023-02-28T18:48:03;146.43;;;48.42;;
36301;SDS011;22334;53.022;18.606;2023-02-28T18:50:38;97.35;;;36.05;;
36301;SDS011;22334;53.022;18.606;2023-02-28T18:53:54;178.68;;;56.20;;
36301;SDS011;22334;53.022;18.606;2023-02-28T18:57:29;268.63;;;102.17;;
36301;SDS011;22334;53.022;18.606;2023-02-28T19:00:03;155.17;;;62.13;;
36301;SDS011;22334;53.022;18.606;2023-02-28T19:03:08;63.57;;;27.70;;
36301;SDS011;22334;53.022;18.606;2023-02-28T19:05:34;62.20;;;26.50;;
36301;SDS011;22334;53.022;18.606;2023-02-28T19:08:01;70.17;;;29.07;;
36301;SDS011;22334;53.022;18.606;2023-02-28T19:10:28;53.72;;;26.42;;
36301;SDS011;22334;53.022;18.606;2023-02-28T19:12:53;67.80;;;34.23;;
36301;SDS011;22334;53.022;18.606;2023-02-28T19:15:23;72.53;;;33.38;;
36301;SDS011;22334;53.022;18.606;2023-02-28T19:17:57;78.85;;;37.67;;
36301;SDS011;22334;53.022;18.606;2023-02-28T19:20:52;84.03;;;37.23;;
36301;SDS011;22334;53.022;18.606;2023-02-28T19:23:47;78.63;;;39.27;;
36301;SDS011;22334;53.022;18.606;2023-02-28T19:29:22;131.00;;;54.20;;
36301;SDS011;22334;53.022;18.606;2023-02-28T19:32:09;82.07;;;37.77;;
36301;SDS011;22334;53.022;18.606;2023-02-28T19:37:55;63.67;;;26.42;;
36301;SDS011;22334;53.022;18.606;2023-02-28T19:40:25;91.25;;;40.88;;
36301;SDS011;22334;53.022;18.606;2023-02-28T19:42:50;57.97;;;25.83;;
36301;SDS011;22334;53.022;18.606;2023-02-28T19:45:16;59.87;;;24.70;;
36301;SDS011;22334;53.022;18.606;2023-02-28T19:47:41;48.67;;;22.57;;